Aérodrome :
LOGIN :

S'inscrire | Disclaimer

   EN    FR    IT 

 










Légende :    VFR   VFR Marginal   IFR   IFR Intensif   IFR Très Intensif
Visi : 
Plafond : 
>= 8 km
>= 3000ft
5 à 8 km
1000 à 3000 ft
1500m à 5 km
500 à 1000 ft
800 à 1500m
200 à 500 ft
< 800m
< 200 ft
Symboles :   Orages  Brouillard  Fortes neiges  Fortes précipitations  Vent > 20 kt
SIGMETs :   Divers  Orages  Givrage  Turbulence  Onde Orograph.  Cendres Volcan.







- Altitude de l'aérodrome : 1273 ft
- Code IATA : LJU


LJLJ - Ljubljana

DERNIER METAR :
  • 210100Z 30002KT CAVOK M00/M01 Q1026 NOSIG

METARs EXPIRÉS :
  • 210030Z VRB02KT CAVOK 00/M01 Q1026 NOSIG
  • 210000Z 31002KT CAVOK 01/00 Q1026 NOSIG
  • 202330Z 24001KT CAVOK 01/M00 Q1026 NOSIG
  • 202300Z 26001KT CAVOK 02/01 Q1025 NOSIG
  • 202230Z 28003KT CAVOK 02/01 Q1025 NOSIG

TAF TAF LJLJ
Valide du 20 à 21h jusqu'au 21 à 21h UTC


202000Z 2021/2121 30003KT CAVOK
PROB30
TEMPO 2022/2106 7000 NSC
BECMG 2108/2111 12005KT
BECMG 2116/2118 30003KT
Pas de NOTAMs connus pour ce terrain.



MET'MAP, la Météo Aéronautique d'un coup d'oeil ! - Copyright ORBIFLY Décembre 2007 - Disclaimer

ORBIFLY MET'MAP TEAM :

Programmation & Développement : Alexandra Zaïnal
Conception & Développement : Baudouin d'Aumeries
Co-Programmation & Développement : Marc-Olivier Méhu
Soutien technique & logistique : Manuel Goepfert

Contact : metmap@orbifly.com




SOURCES & CREDITS :

   NOAA